createdAt,value
2019-01-15T00:00:26.449Z,101537.57
2019-01-15T00:02:55.680Z,101536.91
2019-01-15T00:05:27.029Z,101538.75
2019-01-15T00:07:56.252Z,101534.91
2019-01-15T00:10:25.521Z,101535.59
2019-01-15T00:12:54.758Z,101542.57
2019-01-15T00:15:24.017Z,101539.91
2019-01-15T00:17:53.253Z,101543.25
2019-01-15T00:20:22.796Z,101537.75
2019-01-15T00:22:53.038Z,101535.41
2019-01-15T00:25:22.291Z,101543.90
2019-01-15T00:27:51.510Z,101550.58
2019-01-15T00:30:20.813Z,101550.23
2019-01-15T00:32:50.057Z,101552.36
2019-01-15T00:35:19.299Z,101549.42
2019-01-15T00:37:48.541Z,101554.08
2019-01-15T00:40:18.157Z,101552.75
2019-01-15T00:42:47.392Z,101548.89
2019-01-15T00:45:16.713Z,101548.39
2019-01-15T00:47:45.964Z,101541.56
2019-01-15T00:50:15.666Z,101537.36
2019-01-15T00:52:44.903Z,101534.19
2019-01-15T00:55:14.145Z,101532.91
2019-01-15T00:57:43.397Z,101532.20
2019-01-15T01:00:15.569Z,101547.55
2019-01-15T01:02:44.803Z,101547.55
2019-01-15T01:05:14.631Z,101537.88
2019-01-15T01:07:43.879Z,101536.97
2019-01-15T01:10:14.780Z,101526.02
2019-01-15T01:12:44.017Z,101529.72
2019-01-15T01:15:15.212Z,101541.49
2019-01-15T01:17:44.524Z,101545.53
2019-01-15T01:20:16.662Z,101545.70
2019-01-15T01:22:45.932Z,101543.85
2019-01-15T01:25:15.246Z,101542.76
2019-01-15T01:27:44.480Z,101548.87
2019-01-15T01:30:18.717Z,101547.84
2019-01-15T01:32:47.950Z,101547.15
2019-01-15T01:35:17.203Z,101538.17
2019-01-15T01:37:46.572Z,101538.30
2019-01-15T01:40:18.071Z,101536.62
2019-01-15T01:42:47.383Z,101552.83
2019-01-15T01:45:16.902Z,101550.34
2019-01-15T01:47:46.209Z,101556.23
2019-01-15T01:50:15.626Z,101557.42
2019-01-15T01:52:44.948Z,101550.03
2019-01-15T01:55:14.767Z,101548.83
2019-01-15T01:57:44.177Z,101540.37
2019-01-15T02:00:18.339Z,101548.39
2019-01-15T02:02:47.632Z,101554.23
2019-01-15T02:05:16.927Z,101560.55
2019-01-15T02:07:46.351Z,101558.54
2019-01-15T02:10:17.026Z,101564.17
2019-01-15T02:12:46.520Z,101570.88
2019-01-15T02:15:19.687Z,101560.52
2019-01-15T02:17:49.218Z,101562.70
2019-01-15T02:20:20.083Z,101566.19
2019-01-15T02:22:49.561Z,101568.52
2019-01-15T02:25:18.784Z,101570.56
2019-01-15T02:27:49.803Z,101571.58
2019-01-15T02:30:20.984Z,101569.05
2019-01-15T02:32:50.238Z,101570.90
2019-01-15T02:35:19.531Z,101553.73
2019-01-15T02:37:49.115Z,101543.89
2019-01-15T02:40:18.352Z,101537.23
2019-01-15T02:42:47.614Z,101516.93
2019-01-15T02:45:19.704Z,101519.60
2019-01-15T02:47:49.477Z,101520.94
2019-01-15T02:50:20.043Z,101521.91
2019-01-15T02:52:49.442Z,101519.91
2019-01-15T02:55:18.731Z,101523.03
2019-01-15T02:57:47.981Z,101524.58
2019-01-15T03:00:19.934Z,101527.91
2019-01-15T03:02:49.193Z,101533.27
2019-01-15T03:05:18.519Z,101527.86
2019-01-15T03:07:47.914Z,101525.09
2019-01-15T03:10:21.653Z,101522.25
2019-01-15T03:12:55.834Z,101527.03
2019-01-15T03:15:23.055Z,101522.16
2019-01-15T03:17:52.367Z,101533.31
2019-01-15T03:20:21.605Z,101519.57
2019-01-15T03:22:50.871Z,101517.27
2019-01-15T03:25:20.171Z,101515.22
2019-01-15T03:27:49.424Z,101507.83
2019-01-15T03:30:22.980Z,101505.25
2019-01-15T03:32:52.399Z,101500.92
2019-01-15T03:35:21.697Z,101503.54
2019-01-15T03:37:51.025Z,101509.59
2019-01-15T03:40:22.670Z,101511.08
2019-01-15T03:42:52.246Z,101510.38
2019-01-15T03:45:21.588Z,101508.23
2019-01-15T03:47:50.894Z,101507.87
2019-01-15T03:50:20.148Z,101509.70
2019-01-15T03:52:49.471Z,101507.01
2019-01-15T03:55:18.933Z,101503.89
2019-01-15T03:57:48.197Z,101499.92
2019-01-15T04:00:19.958Z,101505.83
2019-01-15T04:02:49.440Z,101492.24
2019-01-15T04:05:19.033Z,101481.09
2019-01-15T04:07:49.926Z,101483.48
2019-01-15T04:10:19.246Z,101476.86
2019-01-15T04:12:48.503Z,101478.83
2019-01-15T04:15:17.742Z,101481.50
2019-01-15T04:17:47.058Z,101478.59
2019-01-15T04:20:17.053Z,101468.93
2019-01-15T04:22:46.388Z,101477.39
2019-01-15T04:25:15.716Z,101475.94
2019-01-15T04:27:44.949Z,101482.59
2019-01-15T04:30:16.416Z,101483.20
2019-01-15T04:32:45.729Z,101474.25
2019-01-15T04:35:15.329Z,101462.25
2019-01-15T04:37:44.542Z,101464.59
2019-01-15T04:40:16.481Z,101463.94
2019-01-15T04:42:45.789Z,101461.25
2019-01-15T04:45:17.174Z,101460.27
2019-01-15T04:47:48.399Z,101455.94
2019-01-15T04:50:18.704Z,101455.95
2019-01-15T04:52:49.604Z,101452.98
2019-01-15T04:55:20.907Z,101446.77
2019-01-15T04:57:50.168Z,101440.39
2019-01-15T05:00:20.739Z,101439.88
2019-01-15T05:02:51.053Z,101436.30
2019-01-15T05:05:20.310Z,101430.14
2019-01-15T05:07:49.577Z,101431.28
2019-01-15T05:10:18.856Z,101429.66
2019-01-15T05:12:48.269Z,101430.63
2019-01-15T05:15:17.873Z,101428.65
2019-01-15T05:17:49.182Z,101433.90
2019-01-15T05:20:25.229Z,101433.09
2019-01-15T05:22:54.467Z,101430.08
2019-01-15T05:25:23.731Z,101425.42
2019-01-15T05:27:52.955Z,101430.63
2019-01-15T05:30:24.169Z,101416.80
2019-01-15T05:32:53.415Z,101426.11
2019-01-15T05:35:22.776Z,101439.09
2019-01-15T05:37:52.009Z,101440.61
2019-01-15T05:40:21.281Z,101434.43
2019-01-15T05:42:52.532Z,101435.83
2019-01-15T05:45:33.250Z,101428.11
2019-01-15T05:48:04.175Z,101426.97
2019-01-15T05:50:41.646Z,101429.23
2019-01-15T05:53:10.894Z,101422.40
2019-01-15T05:55:41.109Z,101415.12
2019-01-15T05:58:10.369Z,101406.89
2019-01-15T06:00:39.606Z,101404.70
2019-01-15T06:03:08.872Z,101403.11
2019-01-15T06:05:38.135Z,101402.75
2019-01-15T06:08:07.404Z,101406.05
2019-01-15T06:10:36.643Z,101402.55
2019-01-15T06:13:05.923Z,101400.06
2019-01-15T06:15:36.107Z,101402.13
2019-01-15T06:18:05.513Z,101391.84
2019-01-15T06:20:34.756Z,101388.70
2019-01-15T06:23:04.072Z,101391.37
2019-01-15T06:25:33.312Z,101382.97
2019-01-15T06:28:02.570Z,101379.02
2019-01-15T06:30:31.836Z,101380.70
2019-01-15T06:33:01.088Z,101381.61
2019-01-15T06:35:30.345Z,101369.89
2019-01-15T06:37:59.727Z,101362.00
2019-01-15T06:40:29.868Z,101371.94
2019-01-15T06:42:59.114Z,101366.67
2019-01-15T06:45:31.193Z,101373.73
2019-01-15T06:48:00.532Z,101369.89
2019-01-15T06:50:29.788Z,101378.78
2019-01-15T06:52:59.043Z,101379.09
2019-01-15T06:55:28.320Z,101377.02
2019-01-15T06:57:57.572Z,101375.40
2019-01-15T07:00:30.723Z,101378.66
2019-01-15T07:03:00.268Z,101379.63
2019-01-15T07:05:29.609Z,101391.73
2019-01-15T07:07:58.864Z,101383.61
2019-01-15T07:10:36.617Z,101386.92
2019-01-15T07:13:06.220Z,101384.66
2019-01-15T07:15:35.503Z,101390.04
2019-01-15T07:18:04.873Z,101388.04
2019-01-15T07:20:35.061Z,101389.63
2019-01-15T07:23:06.988Z,101389.34
2019-01-15T07:25:38.177Z,101385.73
2019-01-15T07:28:08.447Z,101389.37
2019-01-15T07:30:43.658Z,101396.69
2019-01-15T07:33:12.933Z,101391.06
2019-01-15T07:35:42.251Z,101389.28
2019-01-15T07:38:12.413Z,101378.36
2019-01-15T07:40:41.684Z,101378.62
2019-01-15T07:43:10.915Z,101383.91
2019-01-15T07:45:41.161Z,101374.75
2019-01-15T07:48:11.386Z,101373.13
2019-01-15T07:50:40.647Z,101366.45
2019-01-15T07:53:10.872Z,101371.38
2019-01-15T07:55:41.122Z,101362.41
2019-01-15T07:58:12.385Z,101362.87
2019-01-15T08:00:43.617Z,101358.09
2019-01-15T08:03:12.894Z,101357.59
2019-01-15T08:05:42.197Z,101351.94
2019-01-15T08:08:11.451Z,101351.58
2019-01-15T08:10:41.707Z,101355.92
2019-01-15T08:13:11.118Z,101366.73
2019-01-15T08:15:40.347Z,101365.30
2019-01-15T08:18:09.675Z,101361.54
2019-01-15T08:20:39.820Z,101368.39
2019-01-15T08:23:09.139Z,101365.67
2019-01-15T08:25:38.361Z,101369.52
2019-01-15T08:28:07.689Z,101360.05
2019-01-15T08:30:37.402Z,101368.65
2019-01-15T08:33:06.647Z,101362.41
2019-01-15T08:35:35.950Z,101362.59
2019-01-15T08:38:05.381Z,101357.67
2019-01-15T08:40:34.624Z,101357.62
2019-01-15T08:43:04.034Z,101359.30
2019-01-15T08:45:33.280Z,101370.84
2019-01-15T08:48:06.644Z,101374.17
2019-01-15T08:50:35.971Z,101378.80
2019-01-15T08:53:05.375Z,101381.81
2019-01-15T08:55:34.648Z,101380.62
2019-01-15T08:58:03.972Z,101387.27
2019-01-15T09:00:33.218Z,101392.89
2019-01-15T09:03:06.491Z,101390.27
2019-01-15T09:05:35.734Z,101386.61
2019-01-15T09:08:04.989Z,101383.11
2019-01-15T09:10:34.238Z,101388.22
2019-01-15T09:13:03.568Z,101385.41
2019-01-15T09:15:32.834Z,101374.50
2019-01-15T09:18:02.153Z,101374.69
2019-01-15T09:20:31.409Z,101375.97
2019-01-15T09:23:00.665Z,101369.94
2019-01-15T09:25:30.911Z,101377.77
2019-01-15T09:28:00.162Z,101374.98
2019-01-15T09:30:29.460Z,101369.97
2019-01-15T09:32:58.728Z,101369.78
2019-01-15T09:35:27.976Z,101369.05
2019-01-15T09:37:57.396Z,101378.38
2019-01-15T09:40:26.646Z,101376.94
2019-01-15T09:42:56.817Z,101367.48
2019-01-15T09:45:26.069Z,101370.78
2019-01-15T09:47:56.957Z,101372.66
2019-01-15T09:50:28.205Z,101376.84
2019-01-15T09:52:57.519Z,101366.08
2019-01-15T09:55:27.700Z,101367.91
2019-01-15T09:57:56.975Z,101371.71
2019-01-15T10:00:26.286Z,101362.67
2019-01-15T10:02:55.597Z,101366.42
2019-01-15T10:05:25.900Z,101351.02
2019-01-15T10:07:55.163Z,101358.27
2019-01-15T10:10:25.367Z,101361.66
2019-01-15T10:12:54.641Z,101358.06
2019-01-15T10:15:23.956Z,101356.72
2019-01-15T10:17:53.166Z,101357.50
2019-01-15T10:20:22.423Z,101356.24
2019-01-15T10:22:51.679Z,101357.00
2019-01-15T10:25:27.535Z,101340.19
2019-01-15T10:27:57.556Z,101343.86
2019-01-15T10:30:38.798Z,101340.52
2019-01-15T10:33:13.775Z,101335.55
2019-01-15T10:35:55.148Z,101340.16
2019-01-15T10:38:26.331Z,101337.55
2019-01-15T10:40:57.004Z,101331.94
2019-01-15T10:43:28.495Z,101333.83
2019-01-15T10:45:57.823Z,101337.95
2019-01-15T10:48:27.040Z,101344.17
2019-01-15T10:50:56.342Z,101336.00
2019-01-15T10:53:25.675Z,101324.47
2019-01-15T10:55:54.984Z,101320.08
2019-01-15T10:58:24.251Z,101322.01
2019-01-15T11:00:54.484Z,101318.61
2019-01-15T11:03:23.725Z,101318.70
2019-01-15T11:05:54.080Z,101320.59
2019-01-15T11:08:23.396Z,101312.53
2019-01-15T11:10:52.664Z,101328.06
2019-01-15T11:13:21.908Z,101316.06
2019-01-15T11:15:51.164Z,101315.61
2019-01-15T11:18:20.417Z,101322.55
2019-01-15T11:20:49.679Z,101312.53
2019-01-15T11:23:19.825Z,101316.39
2019-01-15T11:25:49.084Z,101315.61
2019-01-15T11:28:18.309Z,101314.77
2019-01-15T11:30:47.576Z,101316.65
2019-01-15T11:33:16.827Z,101313.07
2019-01-15T11:35:46.087Z,101315.08
2019-01-15T11:38:15.308Z,101311.78
2019-01-15T11:40:44.564Z,101307.86
2019-01-15T11:43:13.819Z,101299.37
2019-01-15T11:45:43.062Z,101303.95
2019-01-15T11:48:12.363Z,101305.27
2019-01-15T11:50:41.587Z,101302.95
2019-01-15T11:53:11.756Z,101301.12
2019-01-15T11:55:41.011Z,101296.92
2019-01-15T11:58:10.249Z,101301.12
2019-01-15T12:00:41.180Z,101289.31
2019-01-15T12:03:12.151Z,101284.89
2019-01-15T12:05:43.017Z,101289.34
2019-01-15T12:08:22.468Z,101290.62
2019-01-15T12:11:08.955Z,101289.21
2019-01-15T12:13:51.398Z,101284.55
2019-01-15T12:16:28.141Z,101279.56
2019-01-15T12:19:13.731Z,101278.22
2019-01-15T12:21:44.596Z,101276.20
2019-01-15T12:24:31.444Z,101269.83
2019-01-15T12:27:08.352Z,101270.80
2019-01-15T12:29:57.213Z,101272.14
2019-01-15T12:32:30.783Z,101266.89
2019-01-15T12:35:13.453Z,101261.17
2019-01-15T12:37:44.378Z,101264.46
2019-01-15T12:40:30.954Z,101260.08
2019-01-15T12:43:13.385Z,101254.95
2019-01-15T12:45:46.717Z,101251.47
2019-01-15T12:48:26.068Z,101246.38
2019-01-15T12:51:08.552Z,101246.91
2019-01-15T12:53:43.198Z,101246.97
2019-01-15T12:56:22.867Z,101235.45
2019-01-15T12:58:53.742Z,101227.48
2019-01-15T13:01:33.638Z,101230.27
2019-01-15T13:04:04.534Z,101235.27
2019-01-15T13:06:51.362Z,101231.69
2019-01-15T13:09:22.243Z,101232.06
2019-01-15T13:12:04.841Z,101229.87
2019-01-15T13:14:41.136Z,101220.66
2019-01-15T13:17:29.630Z,101219.68
2019-01-15T13:20:03.416Z,101217.44
2019-01-15T13:22:34.289Z,101217.88
2019-01-15T13:25:14.970Z,101222.05
2019-01-15T13:27:48.292Z,101224.28
2019-01-15T13:30:19.174Z,101228.92
2019-01-15T13:32:52.485Z,101229.39
2019-01-15T13:35:41.189Z,101236.36
2019-01-15T13:38:24.010Z,101232.80
2019-01-15T13:41:12.462Z,101232.97
2019-01-15T13:43:46.298Z,101228.37
2019-01-15T13:46:17.244Z,101229.23
2019-01-15T13:48:53.986Z,101238.66
2019-01-15T13:51:27.614Z,101233.09
2019-01-15T13:54:01.213Z,101231.84
2019-01-15T13:56:32.103Z,101222.11
2019-01-15T13:59:05.414Z,101230.52
2019-01-15T14:01:52.340Z,101229.66
2019-01-15T14:04:29.035Z,101229.73
2019-01-15T14:06:59.926Z,101227.79
2019-01-15T14:09:33.745Z,101224.02
2019-01-15T14:12:04.638Z,101224.02
2019-01-15T14:14:47.143Z,101210.20
2019-01-15T14:17:24.289Z,101206.55
2019-01-15T14:19:57.292Z,101200.00
2019-01-15T14:22:28.199Z,101199.33
2019-01-15T14:25:10.662Z,101199.69
2019-01-15T14:27:41.553Z,101201.40
2019-01-15T14:30:15.697Z,101197.88
2019-01-15T14:32:48.473Z,101205.05
2019-01-15T14:35:22.023Z,101192.19
2019-01-15T14:37:55.667Z,101189.36
2019-01-15T14:40:35.111Z,101189.77
2019-01-15T14:43:21.643Z,101189.10
2019-01-15T14:46:07.613Z,101192.14
2019-01-15T14:48:38.540Z,101189.52
2019-01-15T14:51:12.336Z,101194.62
2019-01-15T14:53:43.262Z,101190.08
2019-01-15T14:56:20.290Z,101196.23
2019-01-15T14:58:57.011Z,101193.06
2019-01-15T15:01:51.215Z,101189.45
2019-01-15T15:04:24.782Z,101185.08
2019-01-15T15:07:00.636Z,101192.36
2019-01-15T15:09:43.599Z,101188.22
2019-01-15T15:12:24.415Z,101183.31
2019-01-15T15:14:58.247Z,101192.19
2019-01-15T15:17:31.851Z,101188.85
2019-01-15T15:20:11.431Z,101191.02
2019-01-15T15:22:58.274Z,101194.40
2019-01-15T15:25:49.829Z,101199.64
2019-01-15T15:28:20.719Z,101188.33
2019-01-15T15:31:01.119Z,101185.61
2019-01-15T15:33:32.015Z,101186.39
2019-01-15T15:36:11.941Z,101189.89
2019-01-15T15:38:48.613Z,101179.50
2019-01-15T15:41:35.016Z,101181.20
2019-01-15T15:44:07.922Z,101176.50
2019-01-15T15:46:38.805Z,101174.69
2019-01-15T15:49:09.679Z,101172.97
2019-01-15T15:51:40.657Z,101174.45
2019-01-15T15:54:12.470Z,101175.28
2019-01-15T15:56:44.362Z,101174.60
2019-01-15T15:59:15.235Z,101169.69
2019-01-15T16:02:02.061Z,101176.89
2019-01-15T16:04:38.350Z,101181.08
2019-01-15T16:07:17.678Z,101175.31
2019-01-15T16:09:48.555Z,101177.69
2019-01-15T16:12:25.257Z,101181.19
2019-01-15T16:14:57.069Z,101181.48
2019-01-15T16:17:30.873Z,101173.38
2019-01-15T16:20:05.213Z,101177.46
2019-01-15T16:22:41.749Z,101174.46
2019-01-15T16:25:31.066Z,101174.24
2019-01-15T16:28:18.543Z,101168.16
2019-01-15T16:30:53.179Z,101178.55
2019-01-15T16:33:26.817Z,101167.51
2019-01-15T16:35:57.719Z,101168.63
2019-01-15T16:38:46.421Z,101167.56
2019-01-15T16:41:35.072Z,101161.36
2019-01-15T16:44:20.818Z,101164.58
2019-01-15T16:46:51.709Z,101166.03
2019-01-15T16:49:22.593Z,101162.17
2019-01-15T16:51:55.985Z,101160.27
2019-01-15T16:54:35.966Z,101163.06
2019-01-15T16:57:25.394Z,101165.15
2019-01-15T16:59:58.924Z,101167.66
2019-01-15T17:02:35.464Z,101156.16
2019-01-15T17:05:17.345Z,101160.69
2019-01-15T17:07:53.935Z,101159.52
2019-01-15T17:10:41.590Z,101157.77
2019-01-15T17:13:18.458Z,101144.66
2019-01-15T17:15:49.331Z,101148.62
2019-01-15T17:18:20.298Z,101158.17
2019-01-15T17:20:51.191Z,101156.20
2019-01-15T17:23:27.918Z,101155.13
2019-01-15T17:26:18.960Z,101156.42
2019-01-15T17:29:01.945Z,101143.62
2019-01-15T17:31:35.787Z,101150.53
2019-01-15T17:34:06.667Z,101160.33
2019-01-15T17:36:43.634Z,101147.14
2019-01-15T17:39:23.376Z,101151.70
2019-01-15T17:41:54.266Z,101148.62
2019-01-15T17:44:30.843Z,101150.08
2019-01-15T17:47:10.254Z,101146.72
2019-01-15T17:49:49.952Z,101149.52
2019-01-15T17:52:43.350Z,101152.08
2019-01-15T17:55:09.054Z,101147.73
2019-01-15T17:57:42.616Z,101149.88
2019-01-15T18:00:19.871Z,101158.45
2019-01-15T18:02:59.476Z,101152.34
2019-01-15T18:05:30.354Z,101152.02
2019-01-15T18:08:18.930Z,101152.58
2019-01-15T18:10:55.290Z,101160.42
2019-01-15T18:13:31.938Z,101148.80
2019-01-15T18:16:19.107Z,101154.91
2019-01-15T18:18:56.068Z,101153.09
2019-01-15T18:21:42.893Z,101148.13
2019-01-15T18:24:13.782Z,101144.30
2019-01-15T18:26:48.516Z,101142.10
2019-01-15T18:29:35.391Z,101144.14
2019-01-15T18:32:11.926Z,101145.36
2019-01-15T18:34:49.663Z,101136.93
2019-01-15T18:37:20.542Z,101146.48
2019-01-15T18:39:54.368Z,101139.27
2019-01-15T18:42:27.186Z,101138.08
2019-01-15T18:44:58.074Z,101139.81
2019-01-15T18:47:44.682Z,101142.61
2019-01-15T18:50:33.699Z,101137.15
2019-01-15T18:53:13.034Z,101140.17
2019-01-15T18:55:46.572Z,101147.53
2019-01-15T18:58:20.090Z,101129.45
2019-01-15T19:01:02.751Z,101130.30
2019-01-15T19:03:48.725Z,101133.11
2019-01-15T19:06:19.618Z,101137.71
2019-01-15T19:08:50.497Z,101136.00
2019-01-15T19:11:33.241Z,101133.00
2019-01-15T19:14:04.115Z,101127.33
2019-01-15T19:16:37.730Z,101127.33
2019-01-15T19:19:18.264Z,101129.45
2019-01-15T19:21:58.264Z,101123.27
2019-01-15T19:24:40.731Z,101124.13
2019-01-15T19:27:27.275Z,101132.13
2019-01-15T19:30:01.217Z,101123.09
2019-01-15T19:32:47.984Z,101130.36
2019-01-15T19:35:33.768Z,101122.10
2019-01-15T19:38:20.664Z,101130.94
2019-01-15T19:41:03.437Z,101131.11
2019-01-15T19:43:50.064Z,101130.84
2019-01-15T19:46:22.933Z,101133.11
2019-01-15T19:49:09.100Z,101129.28
2019-01-15T19:51:45.415Z,101119.98
2019-01-15T19:54:31.292Z,101120.16
2019-01-15T19:57:11.099Z,101117.07
2019-01-15T19:59:58.218Z,101118.09
2019-01-15T20:02:34.961Z,101127.76
2019-01-15T20:05:23.645Z,101115.39
2019-01-15T20:07:54.529Z,101118.80
2019-01-15T20:10:31.351Z,101121.23
2019-01-15T20:13:08.958Z,101118.09
2019-01-15T20:15:45.497Z,101120.66
2019-01-15T20:18:22.301Z,101109.64
2019-01-15T20:21:11.253Z,101113.08
2019-01-15T20:23:42.116Z,101114.77
2019-01-15T20:26:15.744Z,101123.68
2019-01-15T20:29:02.833Z,101123.91
2019-01-15T20:31:47.545Z,101117.39
2019-01-15T20:34:18.409Z,101116.55
2019-01-15T20:36:50.362Z,101115.03
2019-01-15T20:39:21.258Z,101112.70
2019-01-15T20:42:06.701Z,101118.20
2019-01-15T20:44:54.510Z,101110.42
2019-01-15T20:47:28.405Z,101106.55
2019-01-15T20:50:10.741Z,101113.55
2019-01-15T20:52:43.555Z,101110.75
2019-01-15T20:55:22.822Z,101112.96
2019-01-15T20:58:02.437Z,101115.76
2019-01-15T21:00:36.062Z,101108.58
2019-01-15T21:03:09.662Z,101109.29
2019-01-15T21:05:43.218Z,101109.42
2019-01-15T21:08:19.561Z,101105.97
2019-01-15T21:11:07.583Z,101107.27
2019-01-15T21:13:44.276Z,101107.74
2019-01-15T21:16:23.641Z,101106.12
2019-01-15T21:18:54.520Z,101111.87
2019-01-15T21:21:31.062Z,101116.05
2019-01-15T21:24:13.757Z,101111.06
2019-01-15T21:26:45.615Z,101115.90
2019-01-15T21:29:22.207Z,101111.39
2019-01-15T21:32:05.494Z,101113.37
2019-01-15T21:34:52.313Z,101109.93
2019-01-15T21:37:35.126Z,101112.28
2019-01-15T21:40:07.275Z,101111.03
2019-01-15T21:42:53.233Z,101113.22
2019-01-15T21:45:38.849Z,101108.47
2019-01-15T21:48:19.436Z,101107.22
2019-01-15T21:51:09.344Z,101110.63
2019-01-15T21:53:54.878Z,101103.93
2019-01-15T21:56:31.468Z,101096.32
2019-01-15T21:59:08.003Z,101100.38
2019-01-15T22:01:56.804Z,101097.34
2019-01-15T22:04:27.706Z,101093.41
2019-01-15T22:07:14.922Z,101092.32
2019-01-15T22:09:55.295Z,101093.23
2019-01-15T22:12:38.393Z,101088.28
2019-01-15T22:15:23.036Z,101097.34
2019-01-15T22:17:53.934Z,101085.81
2019-01-15T22:20:24.801Z,101084.85
2019-01-15T22:23:11.589Z,101077.23
2019-01-15T22:26:01.576Z,101083.05
2019-01-15T22:28:35.027Z,101078.00
2019-01-15T22:31:14.630Z,101077.59
2019-01-15T22:34:00.335Z,101074.89
2019-01-15T22:36:33.650Z,101063.93
2019-01-15T22:39:13.218Z,101069.00
2019-01-15T22:41:49.501Z,101061.81
2019-01-15T22:44:29.021Z,101054.23
2019-01-15T22:47:08.476Z,101047.16
2019-01-15T22:49:57.265Z,101049.90
2019-01-15T22:52:47.204Z,101047.55
2019-01-15T22:55:18.080Z,101040.30
2019-01-15T22:57:48.977Z,101043.06
2019-01-15T23:00:41.450Z,101037.38
2019-01-15T23:03:17.538Z,101037.56
2019-01-15T23:05:54.284Z,101036.23
2019-01-15T23:08:30.749Z,101038.20
2019-01-15T23:11:17.393Z,101032.61
2019-01-15T23:14:03.102Z,101034.50
2019-01-15T23:16:37.885Z,101025.23
2019-01-15T23:19:17.614Z,101023.46
2019-01-15T23:21:51.207Z,101030.18
2019-01-15T23:24:22.086Z,101023.09
2019-01-15T23:26:56.899Z,101022.00
2019-01-15T23:29:43.660Z,101020.89
2019-01-15T23:32:17.446Z,101024.59
2019-01-15T23:35:05.911Z,101022.88
2019-01-15T23:37:39.468Z,101015.17
2019-01-15T23:40:16.148Z,101017.50
2019-01-15T23:43:03.000Z,101014.19
2019-01-15T23:45:45.724Z,101010.01
2019-01-15T23:48:19.338Z,101011.52
2019-01-15T23:51:02.306Z,101014.77
2019-01-15T23:53:33.218Z,101014.86
2019-01-15T23:56:18.759Z,101011.28
2019-01-15T23:58:49.689Z,101007.59
